createdAt,value
2023-01-13T00:00:05.996Z,831.58
2023-01-13T00:01:05.965Z,831.73
2023-01-13T00:02:05.938Z,831.69
2023-01-13T00:03:05.906Z,831.94
2023-01-13T00:04:05.888Z,832.15
2023-01-13T00:05:05.979Z,832.06
2023-01-13T00:06:05.867Z,832.36
2023-01-13T00:07:05.849Z,832.28
2023-01-13T00:08:05.865Z,832.43
2023-01-13T00:09:05.830Z,833.14
2023-01-13T00:10:05.812Z,833.09
2023-01-13T00:11:05.820Z,833.13
2023-01-13T00:12:05.795Z,833.08
2023-01-13T00:13:05.793Z,832.96
2023-01-13T00:14:05.823Z,832.82
2023-01-13T00:15:05.758Z,833.30
2023-01-13T00:16:05.816Z,833.71
2023-01-13T00:17:05.731Z,833.65
2023-01-13T00:18:05.725Z,834.18
2023-01-13T00:19:05.725Z,834.64
2023-01-13T00:20:05.712Z,834.65
2023-01-13T00:21:05.690Z,834.81
2023-01-13T00:22:05.672Z,834.72
2023-01-13T00:23:05.660Z,834.63
2023-01-13T00:24:05.683Z,834.62
2023-01-13T00:25:05.646Z,835.00
2023-01-13T00:26:05.623Z,835.44
2023-01-13T00:27:05.643Z,836.01
2023-01-13T00:28:05.633Z,836.89
2023-01-13T00:29:05.638Z,837.19
2023-01-13T00:30:05.625Z,837.14
2023-01-13T00:31:05.643Z,837.33
2023-01-13T00:32:05.563Z,837.69
2023-01-13T00:33:05.581Z,838.30
2023-01-13T00:34:05.545Z,838.39
2023-01-13T00:35:05.542Z,838.83
2023-01-13T00:36:05.528Z,839.19
2023-01-13T00:37:05.536Z,839.58
2023-01-13T00:38:05.504Z,839.71
2023-01-13T00:39:05.488Z,839.42
2023-01-13T00:40:05.481Z,839.36
2023-01-13T00:41:05.473Z,839.56
2023-01-13T00:42:05.451Z,839.56
2023-01-13T00:43:05.477Z,839.74
2023-01-13T00:44:05.415Z,839.86
2023-01-13T00:45:05.417Z,839.33
2023-01-13T00:46:05.495Z,839.54
2023-01-13T00:47:05.391Z,839.50
2023-01-13T00:48:05.407Z,839.60
2023-01-13T00:49:05.394Z,839.73
2023-01-13T00:50:06.263Z,839.95
2023-01-13T00:51:05.353Z,840.46
2023-01-13T00:52:05.334Z,840.14
2023-01-13T00:53:05.334Z,840.10
2023-01-13T00:54:05.298Z,839.48
2023-01-13T00:55:05.314Z,839.38
2023-01-13T00:56:13.770Z,839.55
2023-01-13T00:57:13.520Z,839.43
2023-01-13T00:58:12.563Z,839.57
2023-01-13T00:59:13.537Z,839.67
2023-01-13T01:00:12.844Z,839.85
2023-01-13T01:01:13.296Z,840.01
2023-01-13T01:02:05.420Z,840.29
2023-01-13T01:03:05.303Z,840.86
2023-01-13T01:04:05.338Z,840.90
2023-01-13T01:05:05.259Z,841.27
2023-01-13T01:06:05.193Z,841.45
2023-01-13T01:07:05.153Z,841.48
2023-01-13T01:08:05.161Z,841.43
2023-01-13T01:09:05.158Z,841.42
2023-01-13T01:10:05.161Z,841.56
2023-01-13T01:11:05.121Z,841.56
2023-01-13T01:12:05.103Z,841.59
2023-01-13T01:13:05.116Z,841.67
2023-01-13T01:14:05.179Z,841.59
2023-01-13T01:15:05.116Z,841.95
2023-01-13T01:16:05.148Z,841.54
2023-01-13T01:17:05.040Z,841.79
2023-01-13T01:18:05.044Z,842.09
2023-01-13T01:19:05.377Z,841.91
2023-01-13T01:20:05.030Z,841.57
2023-01-13T01:21:05.004Z,841.39
2023-01-13T01:22:04.992Z,841.13
2023-01-13T01:23:05.003Z,841.96
2023-01-13T01:24:06.084Z,842.40
2023-01-13T01:25:06.016Z,842.74
2023-01-13T01:26:04.936Z,843.59
2023-01-13T01:27:04.945Z,843.84
2023-01-13T01:28:04.935Z,844.25
2023-01-13T01:29:05.648Z,844.32
2023-01-13T01:30:04.954Z,844.56
2023-01-13T01:31:04.940Z,844.13
2023-01-13T01:32:05.864Z,843.65
2023-01-13T01:33:04.877Z,842.61
2023-01-13T01:34:04.854Z,842.18
2023-01-13T01:35:05.206Z,841.64
2023-01-13T01:36:04.881Z,841.61
2023-01-13T01:37:05.776Z,842.80
2023-01-13T01:38:04.815Z,843.46
2023-01-13T01:39:05.706Z,845.03
2023-01-13T01:40:04.775Z,847.09
2023-01-13T01:41:04.781Z,847.48
2023-01-13T01:42:06.450Z,847.79
2023-01-13T01:43:04.780Z,848.80
2023-01-13T01:44:04.749Z,849.51
2023-01-13T01:45:05.093Z,851.28
2023-01-13T01:46:05.539Z,854.38
2023-01-13T01:47:04.744Z,857.42
2023-01-13T01:48:04.721Z,862.42
2023-01-13T01:49:05.687Z,865.61
2023-01-13T01:50:04.687Z,867.69
2023-01-13T01:51:04.657Z,868.44
2023-01-13T01:52:05.340Z,868.95
2023-01-13T01:53:04.678Z,869.82
2023-01-13T01:54:04.629Z,870.89
2023-01-13T01:55:04.673Z,871.09
2023-01-13T01:56:04.623Z,871.91
2023-01-13T01:57:04.599Z,870.43
2023-01-13T01:58:04.624Z,869.14
2023-01-13T01:59:04.620Z,869.98
2023-01-13T02:00:04.595Z,870.71
2023-01-13T02:01:04.700Z,872.27
2023-01-13T02:02:04.616Z,873.02
2023-01-13T02:03:04.577Z,875.83
2023-01-13T02:04:05.369Z,877.86
2023-01-13T02:05:04.514Z,880.05
2023-01-13T02:06:04.502Z,881.71
2023-01-13T02:07:04.471Z,881.82
2023-01-13T02:08:04.469Z,880.84
2023-01-13T02:09:04.463Z,882.00
2023-01-13T02:10:04.513Z,882.07
2023-01-13T02:11:04.477Z,882.25
2023-01-13T02:12:04.414Z,882.36
2023-01-13T02:13:04.413Z,882.29
2023-01-13T02:14:05.412Z,883.22
2023-01-13T02:15:08.675Z,884.91
2023-01-13T02:16:04.838Z,885.79
2023-01-13T02:17:04.393Z,887.44
2023-01-13T02:18:04.361Z,890.04
2023-01-13T02:19:04.353Z,890.96
2023-01-13T02:20:04.380Z,890.36
2023-01-13T02:21:04.324Z,889.58
2023-01-13T02:22:04.326Z,890.37
2023-01-13T02:23:04.396Z,891.94
2023-01-13T02:24:04.276Z,893.26
2023-01-13T02:25:04.285Z,894.43
2023-01-13T02:26:04.286Z,895.75
2023-01-13T02:27:04.267Z,897.16
2023-01-13T02:28:04.248Z,898.27
2023-01-13T02:29:04.239Z,898.61
2023-01-13T02:30:04.248Z,899.18
2023-01-13T02:31:04.223Z,899.10
2023-01-13T02:32:04.199Z,898.80
2023-01-13T02:33:04.244Z,897.63
2023-01-13T02:34:05.024Z,897.31
2023-01-13T02:35:04.948Z,897.82
2023-01-13T02:36:04.472Z,898.34
2023-01-13T02:37:04.129Z,899.15
2023-01-13T02:38:04.139Z,900.06
2023-01-13T02:39:04.106Z,901.31
2023-01-13T02:40:04.118Z,901.63
2023-01-13T02:41:04.099Z,901.01
2023-01-13T02:42:04.110Z,900.54
2023-01-13T02:43:04.077Z,899.78
2023-01-13T02:44:04.064Z,900.46
2023-01-13T02:45:04.063Z,900.37
2023-01-13T02:46:04.896Z,900.38
2023-01-13T02:47:04.811Z,902.60
2023-01-13T02:48:04.012Z,902.38
2023-01-13T02:49:04.049Z,902.04
2023-01-13T02:50:03.996Z,901.74
2023-01-13T02:51:03.985Z,901.58
2023-01-13T02:52:03.997Z,902.44
2023-01-13T02:53:03.971Z,902.37
2023-01-13T02:54:03.965Z,902.55
2023-01-13T02:55:03.957Z,902.05
2023-01-13T02:56:03.949Z,901.46
2023-01-13T02:57:03.944Z,901.38
2023-01-13T02:58:04.732Z,901.69
2023-01-13T03:00:14.083Z,902.82
2023-01-13T03:01:14.159Z,901.47
2023-01-13T03:02:14.503Z,900.64
2023-01-13T03:03:21.374Z,900.66
2023-01-13T03:04:21.231Z,900.24
2023-01-13T03:05:21.216Z,899.75
2023-01-13T03:06:21.210Z,899.34
2023-01-13T03:07:13.987Z,899.24
2023-01-13T03:08:14.000Z,899.65
2023-01-13T03:09:14.001Z,899.42
2023-01-13T03:10:13.960Z,900.56
2023-01-13T03:11:13.899Z,901.87
2023-01-13T03:12:13.895Z,902.57
2023-01-13T03:13:13.938Z,903.48
2023-01-13T03:14:13.858Z,900.91
2023-01-13T03:15:13.846Z,898.85
2023-01-13T03:16:13.875Z,898.45
2023-01-13T03:17:13.835Z,897.80
2023-01-13T03:18:13.822Z,897.04
2023-01-13T03:19:13.827Z,897.17
2023-01-13T03:20:13.800Z,897.20
2023-01-13T03:21:13.796Z,898.05
2023-01-13T03:22:13.819Z,899.11
2023-01-13T03:23:13.776Z,899.44
2023-01-13T03:24:13.754Z,899.03
2023-01-13T03:25:13.815Z,898.83
2023-01-13T03:26:13.746Z,898.67
2023-01-13T03:27:13.734Z,898.61
2023-01-13T03:28:13.762Z,898.40
2023-01-13T03:29:13.692Z,898.33
2023-01-13T03:30:13.673Z,898.57
2023-01-13T03:31:13.693Z,897.96
2023-01-13T03:32:13.649Z,898.52
2023-01-13T03:33:13.661Z,898.71
2023-01-13T03:34:13.640Z,899.19
2023-01-13T03:35:13.663Z,899.41
2023-01-13T03:36:13.622Z,900.59
2023-01-13T03:37:13.605Z,900.95
2023-01-13T03:38:13.659Z,900.93
2023-01-13T03:39:13.598Z,901.52
2023-01-13T03:40:13.583Z,901.90
2023-01-13T03:41:13.629Z,902.64
2023-01-13T03:42:13.814Z,903.38
2023-01-13T03:43:13.551Z,904.36
2023-01-13T03:44:13.595Z,903.82
2023-01-13T03:45:13.542Z,902.94
2023-01-13T03:46:13.562Z,902.91
2023-01-13T03:47:13.518Z,902.72
2023-01-13T03:48:13.480Z,902.94
2023-01-13T03:49:13.464Z,901.58
2023-01-13T03:50:13.453Z,900.31
2023-01-13T03:51:13.742Z,897.90
2023-01-13T03:52:13.446Z,897.53
2023-01-13T03:53:13.451Z,897.81
2023-01-13T03:54:13.427Z,897.62
2023-01-13T03:55:13.436Z,897.82
2023-01-13T03:56:13.396Z,896.86
2023-01-13T03:57:13.402Z,896.96
2023-01-13T03:58:13.397Z,897.99
2023-01-13T03:59:13.366Z,898.58
2023-01-13T04:00:13.373Z,896.91
2023-01-13T04:01:13.391Z,895.51
2023-01-13T04:02:13.441Z,895.15
2023-01-13T04:03:13.352Z,894.98
2023-01-13T04:04:13.308Z,895.51
2023-01-13T04:05:13.299Z,896.28
2023-01-13T04:06:13.305Z,897.66
2023-01-13T04:07:13.265Z,898.30
2023-01-13T04:08:13.264Z,898.23
2023-01-13T04:09:13.288Z,898.67
2023-01-13T04:10:13.269Z,898.04
2023-01-13T04:11:13.232Z,898.36
2023-01-13T04:12:13.215Z,898.52
2023-01-13T04:13:13.244Z,898.25
2023-01-13T04:14:13.187Z,899.04
2023-01-13T04:15:13.175Z,899.56
2023-01-13T04:16:13.269Z,899.95
2023-01-13T04:17:13.171Z,901.14
2023-01-13T04:18:13.190Z,901.18
2023-01-13T04:19:13.155Z,901.33
2023-01-13T04:20:13.135Z,901.84
2023-01-13T04:21:13.112Z,902.62
2023-01-13T04:22:13.126Z,903.21
2023-01-13T04:23:13.137Z,903.57
2023-01-13T04:24:13.091Z,903.65
2023-01-13T04:25:13.058Z,904.07
2023-01-13T04:26:13.057Z,904.46
2023-01-13T04:27:13.059Z,905.13
2023-01-13T04:28:13.055Z,906.84
2023-01-13T04:29:15.447Z,908.63
2023-01-13T04:30:13.036Z,910.24
2023-01-13T04:31:13.070Z,910.98
2023-01-13T04:32:13.310Z,912.28
2023-01-13T04:33:13.032Z,913.60
2023-01-13T04:34:12.991Z,915.00
2023-01-13T04:35:12.979Z,916.52
2023-01-13T04:36:12.950Z,918.25
2023-01-13T04:37:12.960Z,919.88
2023-01-13T04:38:12.950Z,920.30
2023-01-13T04:39:12.921Z,920.92
2023-01-13T04:40:12.920Z,921.42
2023-01-13T04:41:12.915Z,921.41
2023-01-13T04:42:12.889Z,921.65
2023-01-13T04:43:12.889Z,921.63
2023-01-13T04:44:12.859Z,919.87
2023-01-13T04:45:12.850Z,918.40
2023-01-13T04:46:12.870Z,916.75
2023-01-13T04:47:12.828Z,915.80
2023-01-13T04:48:12.866Z,914.80
2023-01-13T04:49:12.820Z,914.42
2023-01-13T04:50:12.797Z,914.24
2023-01-13T04:51:12.801Z,914.07
2023-01-13T04:52:12.770Z,913.62
2023-01-13T04:53:12.813Z,913.64
2023-01-13T04:54:12.750Z,914.10
2023-01-13T04:55:12.743Z,914.17
2023-01-13T04:56:12.723Z,913.55
2023-01-13T04:57:12.719Z,912.48
2023-01-13T04:58:12.754Z,912.24
2023-01-13T04:59:12.691Z,912.65
2023-01-13T05:00:12.671Z,913.70
2023-01-13T05:01:12.743Z,913.72
2023-01-13T05:02:12.677Z,914.32
2023-01-13T05:03:12.639Z,913.80
2023-01-13T05:04:12.672Z,913.20
2023-01-13T05:05:12.611Z,913.13
2023-01-13T05:06:21.251Z,913.22
2023-01-13T05:07:19.957Z,914.48
2023-01-13T05:08:20.165Z,915.46
2023-01-13T05:09:19.837Z,916.86
2023-01-13T05:10:19.833Z,918.09
2023-01-13T05:11:19.811Z,919.29
2023-01-13T05:12:19.831Z,920.81
2023-01-13T05:13:12.662Z,922.15
2023-01-13T05:14:12.574Z,924.48
2023-01-13T05:15:12.567Z,926.47
2023-01-13T05:16:12.587Z,928.83
2023-01-13T05:17:12.531Z,930.30
2023-01-13T05:18:12.562Z,931.37
2023-01-13T05:19:12.466Z,931.75
2023-01-13T05:20:12.456Z,932.47
2023-01-13T05:21:12.480Z,932.92
2023-01-13T05:22:12.463Z,934.09
2023-01-13T05:23:12.430Z,936.38
2023-01-13T05:24:12.431Z,937.80
2023-01-13T05:25:12.426Z,938.84
2023-01-13T05:26:12.399Z,938.76
2023-01-13T05:27:12.386Z,938.42
2023-01-13T05:28:12.390Z,938.21
2023-01-13T05:29:12.367Z,937.45
2023-01-13T05:30:12.351Z,936.00
2023-01-13T05:31:12.380Z,934.70
2023-01-13T05:32:12.326Z,935.19
2023-01-13T05:33:13.385Z,936.16
2023-01-13T05:34:12.324Z,936.17
2023-01-13T05:35:12.294Z,936.78
2023-01-13T05:36:12.292Z,935.94
2023-01-13T05:37:12.291Z,932.88
2023-01-13T05:38:12.266Z,929.23
2023-01-13T05:39:12.324Z,927.50
2023-01-13T05:40:12.482Z,925.71
2023-01-13T05:41:12.219Z,926.08
2023-01-13T05:42:12.225Z,927.71
2023-01-13T05:43:12.255Z,928.88
2023-01-13T05:44:12.193Z,930.86
2023-01-13T05:45:12.183Z,932.74
2023-01-13T05:46:12.256Z,933.75
2023-01-13T05:47:12.157Z,935.44
2023-01-13T05:48:12.175Z,936.87
2023-01-13T05:49:12.168Z,938.26
2023-01-13T05:50:12.167Z,940.15
2023-01-13T05:51:12.127Z,941.47
2023-01-13T05:52:12.118Z,942.76
2023-01-13T05:53:12.117Z,943.71
2023-01-13T05:54:12.334Z,944.58
2023-01-13T05:55:12.075Z,944.67
2023-01-13T05:56:12.121Z,944.53
2023-01-13T05:57:12.090Z,944.43
2023-01-13T05:58:12.050Z,944.89
2023-01-13T05:59:12.069Z,943.44
2023-01-13T06:00:12.058Z,942.06
2023-01-13T06:01:12.094Z,940.04
2023-01-13T06:02:12.021Z,939.67
2023-01-13T06:03:12.040Z,940.95
2023-01-13T06:04:11.974Z,941.37
2023-01-13T06:05:11.959Z,940.51
2023-01-13T06:06:11.996Z,941.76
2023-01-13T06:07:11.944Z,941.97
2023-01-13T06:08:11.944Z,942.24
2023-01-13T06:09:11.990Z,942.84
2023-01-13T06:10:11.929Z,943.96
2023-01-13T06:11:11.921Z,943.21
2023-01-13T06:12:11.950Z,939.82
2023-01-13T06:13:11.892Z,937.34
2023-01-13T06:14:11.870Z,936.36
2023-01-13T06:15:11.895Z,937.04
2023-01-13T06:16:11.872Z,936.67
2023-01-13T06:17:11.831Z,934.44
2023-01-13T06:18:11.844Z,931.66
2023-01-13T06:19:11.847Z,929.64
2023-01-13T06:20:11.833Z,930.04
2023-01-13T06:21:11.789Z,931.07
2023-01-13T06:22:11.769Z,931.86
2023-01-13T06:23:11.793Z,932.55
2023-01-13T06:24:11.759Z,932.98
2023-01-13T06:25:11.772Z,933.72
2023-01-13T06:26:11.733Z,934.31
2023-01-13T06:27:11.712Z,935.06
2023-01-13T06:28:11.730Z,934.81
2023-01-13T06:29:11.706Z,934.20
2023-01-13T06:30:12.777Z,934.24
2023-01-13T06:31:11.863Z,935.05
2023-01-13T06:32:11.661Z,935.99
2023-01-13T06:33:11.684Z,937.33
2023-01-13T06:34:11.959Z,937.78
2023-01-13T06:35:11.632Z,937.00
2023-01-13T06:36:11.610Z,937.46
2023-01-13T06:37:11.677Z,938.80
2023-01-13T06:38:11.621Z,939.71
2023-01-13T06:39:15.561Z,941.09
2023-01-13T06:40:11.573Z,942.01
2023-01-13T06:41:11.585Z,942.19
2023-01-13T06:42:12.293Z,940.94
2023-01-13T06:43:11.570Z,940.35
2023-01-13T06:44:11.557Z,939.33
2023-01-13T06:45:11.528Z,938.88
2023-01-13T06:46:11.501Z,937.70
2023-01-13T06:47:11.518Z,933.86
2023-01-13T06:48:11.526Z,930.63
2023-01-13T06:49:11.491Z,929.85
2023-01-13T06:50:11.751Z,929.38
2023-01-13T06:51:11.447Z,929.18
2023-01-13T06:52:11.443Z,929.54
2023-01-13T06:53:11.503Z,929.70
2023-01-13T06:54:11.423Z,930.19
2023-01-13T06:55:11.402Z,930.41
2023-01-13T06:56:11.439Z,931.40
2023-01-13T06:57:11.385Z,932.36
2023-01-13T06:58:11.398Z,932.08
2023-01-13T06:59:11.365Z,931.97
2023-01-13T07:00:11.394Z,931.36
2023-01-13T07:01:11.417Z,931.81
2023-01-13T07:02:11.493Z,932.37
2023-01-13T07:03:11.343Z,929.79
2023-01-13T07:04:11.323Z,926.98
2023-01-13T07:05:11.293Z,923.59
2023-01-13T07:06:11.280Z,921.07
2023-01-13T07:07:11.264Z,919.48
2023-01-13T07:08:11.353Z,919.89
2023-01-13T07:09:11.245Z,920.85
2023-01-13T07:10:11.244Z,921.12
2023-01-13T07:11:11.233Z,920.75
2023-01-13T07:12:11.203Z,920.54
2023-01-13T07:13:19.512Z,920.07
2023-01-13T07:14:18.462Z,920.07
2023-01-13T07:15:18.439Z,920.93
2023-01-13T07:16:18.515Z,921.27
2023-01-13T07:17:18.397Z,920.84
2023-01-13T07:18:11.230Z,920.78
2023-01-13T07:19:11.198Z,920.31
2023-01-13T07:20:11.221Z,919.95
2023-01-13T07:21:11.185Z,920.07
2023-01-13T07:22:11.157Z,920.87
2023-01-13T07:23:11.109Z,920.71
2023-01-13T07:24:11.087Z,920.12
2023-01-13T07:25:11.121Z,919.18
2023-01-13T07:26:11.072Z,918.67
2023-01-13T07:27:11.080Z,918.49
2023-01-13T07:28:11.136Z,918.45
2023-01-13T07:29:11.046Z,918.98
2023-01-13T07:30:11.042Z,919.88
2023-01-13T07:31:11.058Z,922.02
2023-01-13T07:32:11.011Z,923.49
2023-01-13T07:33:11.053Z,926.12
2023-01-13T07:34:11.219Z,927.45
2023-01-13T07:35:10.957Z,928.39
2023-01-13T07:36:10.948Z,928.95
2023-01-13T07:37:10.990Z,930.09
2023-01-13T07:38:10.953Z,931.15
2023-01-13T07:39:10.907Z,931.94
2023-01-13T07:40:10.913Z,932.45
2023-01-13T07:41:10.889Z,930.82
2023-01-13T07:42:10.879Z,929.08
2023-01-13T07:43:10.915Z,927.00
2023-01-13T07:44:10.900Z,925.59
2023-01-13T07:45:12.302Z,924.32
2023-01-13T07:46:10.895Z,922.06
2023-01-13T07:47:10.879Z,920.78
2023-01-13T07:48:10.829Z,920.29
2023-01-13T07:49:10.808Z,920.52
2023-01-13T07:50:10.804Z,920.76
2023-01-13T07:51:10.772Z,921.94
2023-01-13T07:52:10.770Z,920.69
2023-01-13T07:53:10.781Z,919.15
2023-01-13T07:54:10.796Z,919.42
2023-01-13T07:55:10.730Z,919.21
2023-01-13T07:56:10.741Z,923.73
2023-01-13T07:57:10.726Z,930.56
2023-01-13T07:58:10.710Z,939.96
2023-01-13T07:59:10.714Z,948.08
2023-01-13T08:00:12.844Z,955.07
2023-01-13T08:01:10.814Z,964.74
2023-01-13T08:02:10.877Z,967.02
2023-01-13T08:03:10.744Z,967.89
2023-01-13T08:04:10.651Z,968.57
2023-01-13T08:05:10.624Z,969.73
2023-01-13T08:06:10.636Z,971.70
2023-01-13T08:07:10.606Z,972.76
2023-01-13T08:08:10.611Z,974.50
2023-01-13T08:09:10.581Z,977.58
2023-01-13T08:10:10.662Z,977.66
2023-01-13T08:11:10.569Z,977.47
2023-01-13T08:12:10.590Z,981.47
2023-01-13T08:13:10.573Z,982.07
2023-01-13T08:14:10.528Z,983.66
2023-01-13T08:15:10.523Z,985.32
2023-01-13T08:16:10.554Z,988.30
2023-01-13T08:17:10.579Z,990.29
2023-01-13T08:18:10.584Z,991.76
2023-01-13T08:19:10.509Z,993.37
2023-01-13T08:20:10.481Z,994.67
2023-01-13T08:21:10.464Z,996.78
2023-01-13T08:22:10.447Z,998.62
2023-01-13T08:23:10.454Z,1001.00
2023-01-13T08:24:10.404Z,1002.35
2023-01-13T08:25:10.476Z,1006.44
2023-01-13T08:26:10.385Z,1004.43
2023-01-13T08:27:10.419Z,1005.99
2023-01-13T08:28:10.480Z,1003.05
2023-01-13T08:29:11.064Z,1002.90
2023-01-13T08:30:10.342Z,1007.09
2023-01-13T08:31:10.419Z,1010.42
2023-01-13T08:32:10.341Z,1010.87
2023-01-13T08:33:10.334Z,1011.22
2023-01-13T08:34:10.367Z,1011.02
2023-01-13T08:35:10.305Z,1009.21
2023-01-13T08:36:10.296Z,1007.44
2023-01-13T08:37:10.309Z,1003.87
2023-01-13T08:38:10.272Z,1006.12
2023-01-13T08:39:10.268Z,1003.30
2023-01-13T08:40:10.227Z,1004.41
2023-01-13T08:41:10.263Z,1003.29
2023-01-13T08:42:10.236Z,1003.74
2023-01-13T08:43:10.212Z,1003.12
2023-01-13T08:44:10.189Z,1002.66
2023-01-13T08:45:10.177Z,1001.70
2023-01-13T08:46:10.252Z,1000.99
2023-01-13T08:47:10.146Z,999.88
2023-01-13T08:48:10.222Z,998.16
2023-01-13T08:49:10.138Z,997.32
2023-01-13T08:50:10.156Z,995.95
2023-01-13T08:51:10.097Z,994.20
2023-01-13T08:52:10.100Z,993.25
2023-01-13T08:53:10.096Z,993.60
2023-01-13T08:54:10.098Z,992.67
2023-01-13T08:55:10.073Z,991.35
2023-01-13T08:56:10.072Z,989.19
2023-01-13T08:57:10.161Z,988.45
2023-01-13T08:58:15.589Z,989.04
2023-01-13T08:59:11.055Z,990.53
2023-01-13T09:00:10.024Z,999.74
2023-01-13T09:01:10.119Z,1005.85
2023-01-13T09:02:10.135Z,1006.61
2023-01-13T09:03:10.031Z,1004.70
2023-01-13T09:04:09.995Z,1003.84
2023-01-13T09:05:09.951Z,1002.27
2023-01-13T09:06:09.925Z,1001.25
2023-01-13T09:07:09.927Z,999.66
2023-01-13T09:08:09.949Z,994.96
2023-01-13T09:09:09.888Z,996.03
2023-01-13T09:10:09.893Z,993.29
2023-01-13T09:11:09.873Z,995.14
2023-01-13T09:12:09.896Z,993.52
2023-01-13T09:13:17.159Z,992.43
2023-01-13T09:14:18.139Z,990.28
2023-01-13T09:15:17.116Z,992.53
2023-01-13T09:16:17.394Z,997.29
2023-01-13T09:17:18.084Z,998.57
2023-01-13T09:18:18.312Z,997.07
2023-01-13T09:19:17.068Z,993.54
2023-01-13T09:20:17.306Z,986.12
2023-01-13T09:21:09.834Z,980.07
2023-01-13T09:22:09.809Z,962.44
2023-01-13T09:23:11.010Z,981.29
2023-01-13T09:24:09.800Z,978.70
2023-01-13T09:25:09.813Z,961.91
2023-01-13T09:26:09.698Z,965.94
2023-01-13T09:27:09.740Z,953.17
2023-01-13T09:28:09.725Z,978.02
2023-01-13T09:29:09.736Z,972.34
2023-01-13T09:30:09.675Z,950.20
2023-01-13T09:31:09.736Z,969.15
2023-01-13T09:32:09.682Z,974.79
2023-01-13T09:33:09.733Z,980.54
2023-01-13T09:34:09.612Z,973.33
2023-01-13T09:35:09.603Z,966.68
2023-01-13T09:36:09.677Z,968.28
2023-01-13T09:37:09.582Z,950.97
2023-01-13T09:38:09.588Z,946.97
2023-01-13T09:39:09.582Z,933.69
2023-01-13T09:40:09.562Z,946.65
2023-01-13T09:41:09.782Z,950.37
2023-01-13T09:42:09.593Z,954.52
2023-01-13T09:43:09.561Z,925.13
2023-01-13T09:44:09.519Z,952.88
2023-01-13T09:45:09.577Z,938.27
2023-01-13T09:46:09.543Z,952.73
2023-01-13T09:47:09.513Z,952.23
2023-01-13T09:48:09.513Z,951.57
2023-01-13T09:49:09.467Z,951.64
2023-01-13T09:50:09.464Z,950.95
2023-01-13T09:51:09.487Z,949.77
2023-01-13T09:52:09.566Z,950.59
2023-01-13T09:53:09.428Z,952.36
2023-01-13T09:54:09.396Z,952.63
2023-01-13T09:55:09.418Z,951.21
2023-01-13T09:56:09.380Z,951.81
2023-01-13T09:57:09.492Z,951.52
2023-01-13T09:58:09.396Z,951.40
2023-01-13T09:59:09.420Z,950.74
2023-01-13T10:00:09.345Z,921.75
2023-01-13T10:01:09.478Z,952.62
2023-01-13T10:02:09.310Z,952.55
2023-01-13T10:03:09.367Z,952.84
2023-01-13T10:04:09.369Z,955.41
2023-01-13T10:05:09.402Z,955.23
2023-01-13T10:06:09.291Z,953.49
2023-01-13T10:07:09.245Z,954.19
2023-01-13T10:08:09.255Z,951.20
2023-01-13T10:09:09.250Z,951.93
2023-01-13T10:10:09.948Z,949.28
2023-01-13T10:11:09.273Z,951.15
2023-01-13T10:12:09.205Z,950.56
2023-01-13T10:13:09.208Z,948.86
2023-01-13T10:14:09.208Z,948.07
2023-01-13T10:15:09.192Z,947.68
2023-01-13T10:16:09.209Z,948.57
2023-01-13T10:17:09.179Z,947.31
2023-01-13T10:18:09.206Z,946.08
2023-01-13T10:19:09.123Z,944.34
2023-01-13T10:20:09.127Z,943.40
2023-01-13T10:21:09.107Z,944.01
2023-01-13T10:22:09.554Z,944.52
2023-01-13T10:23:09.115Z,944.70
2023-01-13T10:24:09.077Z,945.13
2023-01-13T10:25:09.055Z,941.67
2023-01-13T10:26:09.103Z,946.82
2023-01-13T10:27:09.266Z,947.02
2023-01-13T10:28:09.030Z,949.26
2023-01-13T10:29:09.020Z,956.27
2023-01-13T10:30:08.996Z,964.66
2023-01-13T10:31:09.021Z,972.90
2023-01-13T10:32:09.015Z,981.25
2023-01-13T10:33:08.964Z,953.44
2023-01-13T10:34:08.965Z,993.54
2023-01-13T10:35:08.932Z,985.05
2023-01-13T10:36:08.927Z,973.86
2023-01-13T10:37:08.962Z,1008.15
2023-01-13T10:38:08.903Z,984.92
2023-01-13T10:39:08.907Z,985.18
2023-01-13T10:40:08.914Z,988.70
2023-01-13T10:41:08.884Z,987.24
2023-01-13T10:42:08.879Z,974.96
2023-01-13T10:43:08.863Z,996.85
2023-01-13T10:44:09.816Z,968.88
2023-01-13T10:45:08.822Z,990.16
2023-01-13T10:46:08.835Z,1004.06
2023-01-13T10:47:08.794Z,997.33
2023-01-13T10:48:08.794Z,985.75
2023-01-13T10:49:08.777Z,1007.50
2023-01-13T10:50:09.768Z,983.15
2023-01-13T10:51:08.796Z,975.71
2023-01-13T10:52:08.752Z,966.31
2023-01-13T10:53:12.674Z,958.89
2023-01-13T10:54:08.760Z,994.92
2023-01-13T10:55:08.706Z,969.83
2023-01-13T10:56:08.698Z,962.31
2023-01-13T10:57:08.696Z,945.69
2023-01-13T10:58:08.678Z,921.53
2023-01-13T10:59:08.699Z,926.64
2023-01-13T11:00:08.731Z,922.77
2023-01-13T11:01:09.311Z,920.32
2023-01-13T11:02:24.204Z,945.05
2023-01-13T11:03:09.612Z,924.96
2023-01-13T11:04:08.618Z,925.44
2023-01-13T11:05:08.754Z,934.89
2023-01-13T11:06:08.591Z,930.56
2023-01-13T11:07:08.605Z,923.27
2023-01-13T11:08:08.633Z,948.65
2023-01-13T11:09:08.561Z,916.29
2023-01-13T11:10:08.552Z,919.42
2023-01-13T11:11:08.629Z,944.65
2023-01-13T11:12:08.520Z,974.18
2023-01-13T11:13:10.304Z,980.69
2023-01-13T11:14:17.544Z,1001.34
2023-01-13T11:16:33.423Z,1008.41
2023-01-13T11:17:41.303Z,1008.61
2023-01-13T11:21:22.269Z,981.99
2023-01-13T11:22:17.333Z,965.03
2023-01-13T11:23:14.794Z,960.13
2023-01-13T11:24:12.186Z,959.92
2023-01-13T11:25:12.217Z,959.64
2023-01-13T11:26:11.998Z,958.50
2023-01-13T11:27:11.937Z,947.40
2023-01-13T11:28:13.898Z,935.04
2023-01-13T11:29:11.967Z,927.70
2023-01-13T11:30:11.956Z,941.80
2023-01-13T11:31:11.997Z,967.35
2023-01-13T11:32:11.949Z,976.38
2023-01-13T11:33:11.898Z,997.79
2023-01-13T11:34:11.863Z,972.63
2023-01-13T11:35:11.824Z,976.21
2023-01-13T11:36:11.818Z,977.24
2023-01-13T11:37:11.798Z,1003.25
2023-01-13T11:38:11.829Z,975.02
2023-01-13T11:39:11.784Z,973.81
2023-01-13T11:40:11.760Z,989.57
2023-01-13T11:41:11.779Z,996.68
2023-01-13T11:42:11.827Z,996.97
2023-01-13T11:43:11.754Z,999.56
2023-01-13T11:44:11.761Z,997.49
2023-01-13T11:45:11.747Z,1019.81
2023-01-13T11:46:11.989Z,995.79
2023-01-13T11:47:11.737Z,1001.79
2023-01-13T11:48:11.696Z,1004.47
2023-01-13T11:49:11.691Z,996.10
2023-01-13T11:50:11.645Z,1013.37
2023-01-13T11:51:11.641Z,1020.44
2023-01-13T11:52:11.655Z,1024.40
2023-01-13T11:53:11.621Z,1004.61
2023-01-13T11:54:11.591Z,988.97
2023-01-13T11:55:11.601Z,946.22
2023-01-13T11:56:11.648Z,947.89
2023-01-13T11:57:11.565Z,953.02
2023-01-13T11:58:11.569Z,939.15
2023-01-13T11:59:11.565Z,912.26
2023-01-13T12:00:11.791Z,901.65
2023-01-13T12:01:11.562Z,901.16
2023-01-13T12:02:11.559Z,906.20
2023-01-13T12:03:11.516Z,911.53
2023-01-13T12:04:11.502Z,908.68
2023-01-13T12:05:11.482Z,912.20
2023-01-13T12:06:11.482Z,923.17
2023-01-13T12:07:11.507Z,933.32
2023-01-13T12:08:11.454Z,925.15
2023-01-13T12:09:11.450Z,903.51
2023-01-13T12:10:13.599Z,888.65
2023-01-13T12:11:11.417Z,883.62
2023-01-13T12:12:11.433Z,895.61
2023-01-13T12:13:11.424Z,941.91
2023-01-13T12:14:11.384Z,990.61
2023-01-13T12:15:11.447Z,1007.43
2023-01-13T12:16:11.385Z,1015.09
2023-01-13T12:17:11.422Z,1025.04
2023-01-13T12:18:11.336Z,1022.73
2023-01-13T12:19:11.376Z,1016.23
2023-01-13T12:20:11.426Z,1011.92
2023-01-13T12:21:11.316Z,1009.16
2023-01-13T12:22:11.406Z,1007.35
2023-01-13T12:23:11.581Z,1003.11
2023-01-13T12:24:11.270Z,997.84
2023-01-13T12:25:11.608Z,997.86
2023-01-13T12:26:11.245Z,1000.26
2023-01-13T12:27:11.210Z,1002.72
2023-01-13T12:28:11.945Z,1010.89
2023-01-13T12:29:11.186Z,1016.71
2023-01-13T12:30:11.242Z,1020.05
2023-01-13T12:31:11.171Z,1020.08